Time;durP1;ratioP1;P1;durP2;ratioP2;P2;SDS_P1;SDS_P2;PMS_P1;PMS_P2;Temp;Humidity;BMP_temperature;BMP_pressure;BME280_temperature;BME280_humidity;BME280_pressure;Samples;Min_cycle;Max_cycle;Signal;HPM_P1;HPM_P2
2023/12/18 00:02:02;;;;;;;27.75;19.63;;;;;;;-0.24;82.44;100531.34;5026921;27;104346;-70
2023/12/18 00:04:30;;;;;;;22.10;15.40;;;;;;;-0.17;82.18;100538.03;5018673;27;103264;-71
2023/12/18 00:06:58;;;;;;;23.75;17.65;;;;;;;-0.08;82.28;100532.50;5021303;27;102739;-70
2023/12/18 00:09:26;;;;;;;19.85;15.25;;;;;;;-0.05;82.11;100531.53;5021912;27;102799;-71
2023/12/18 00:11:54;;;;;;;26.67;20.30;;;;;;;-0.14;82.22;100526.63;5030089;27;103289;-70
2023/12/18 00:14:22;;;;;;;26.60;21.83;;;;;;;-0.34;82.75;100525.63;5008059;27;104194;-71
2023/12/18 00:16:51;;;;;;;25.73;19.75;;;;;;;-0.47;83.50;100519.09;5030541;27;102717;-70
2023/12/18 00:19:19;;;;;;;21.98;17.40;;;;;;;-0.32;83.26;100508.16;4999888;27;104376;-71
2023/12/18 00:21:47;;;;;;;27.02;20.98;;;;;;;-0.37;83.12;100517.88;5004977;27;104272;-70
2023/12/18 00:24:15;;;;;;;23.08;18.38;;;;;;;-0.33;83.01;100514.25;5009294;27;103229;-70
2023/12/18 00:26:44;;;;;;;25.50;20.48;;;;;;;-0.37;83.01;100500.53;5025062;27;102714;-70
2023/12/18 00:29:11;;;;;;;27.80;21.08;;;;;;;-0.39;83.43;100507.53;5033293;27;104166;-69
2023/12/18 00:31:40;;;;;;;27.70;21.27;;;;;;;-0.46;83.29;100502.59;5007456;27;104146;-69
2023/12/18 00:34:09;;;;;;;26.50;20.52;;;;;;;-0.43;82.95;100505.94;5023239;27;104032;-70
2023/12/18 00:36:39;;;;;;;25.65;19.25;;;;;;;-0.46;83.42;100505.19;5019858;27;103204;-70
2023/12/18 00:39:07;;;;;;;25.65;19.60;;;;;;;-0.44;83.44;100506.00;5023594;27;102720;-70
2023/12/18 00:41:35;;;;;;;20.70;16.58;;;;;;;-0.36;83.35;100497.00;5011900;27;104478;-70
2023/12/18 00:44:03;;;;;;;22.67;17.02;;;;;;;-0.24;83.64;100494.88;5015734;27;104510;-70
2023/12/18 00:46:31;;;;;;;17.25;14.35;;;;;;;-0.13;83.33;100486.66;5029157;27;103319;-70
2023/12/18 00:48:59;;;;;;;16.52;12.88;;;;;;;-0.05;83.10;100490.69;5013570;27;104378;-70
2023/12/18 00:51:29;;;;;;;18.67;14.70;;;;;;;0.05;82.79;100490.34;5028935;27;104276;-70
2023/12/18 00:53:57;;;;;;;20.52;15.20;;;;;;;0.08;82.88;100490.22;5019506;27;102638;-71
2023/12/18 00:56:24;;;;;;;16.58;13.43;;;;;;;0.07;82.32;100486.78;5023318;27;103115;-71
2023/12/18 00:58:52;;;;;;;18.83;14.05;;;;;;;0.07;82.66;100478.97;5027657;27;102711;-70
2023/12/18 01:01:20;;;;;;;15.38;12.35;;;;;;;0.16;82.92;100483.00;5028142;27;103377;-71
2023/12/18 01:03:50;;;;;;;24.60;18.83;;;;;;;0.18;82.35;100485.53;5004558;27;103233;-71
2023/12/18 01:06:18;;;;;;;21.45;14.32;;;;;;;0.21;82.45;100491.50;5021762;27;103151;-70
2023/12/18 01:08:48;;;;;;;23.50;18.02;;;;;;;0.28;82.29;100499.94;5012039;27;103878;-69
2023/12/18 01:11:16;;;;;;;15.77;13.45;;;;;;;0.25;82.04;100492.19;5023905;27;104155;-70
2023/12/18 01:13:44;;;;;;;21.75;15.90;;;;;;;0.32;82.00;100493.69;5029795;27;103271;-70
2023/12/18 01:16:12;;;;;;;18.95;13.57;;;;;;;0.32;82.08;100491.06;5028136;27;102691;-70
2023/12/18 01:18:40;;;;;;;23.48;17.35;;;;;;;0.34;81.48;100497.06;5030855;27;103785;-70
2023/12/18 01:21:08;;;;;;;23.00;16.95;;;;;;;0.30;81.68;100493.75;5007708;27;104283;-69
2023/12/18 01:23:36;;;;;;;23.02;17.73;;;;;;;0.29;81.45;100492.03;5006121;27;103158;-70
2023/12/18 01:26:06;;;;;;;18.80;13.43;;;;;;;0.24;81.83;100480.94;5022506;27;102943;-71
2023/12/18 01:28:34;;;;;;;16.77;12.98;;;;;;;0.29;81.89;100483.38;5023058;27;103744;-70
2023/12/18 01:31:02;;;;;;;18.35;13.93;;;;;;;0.29;81.62;100483.38;5022928;27;104427;-71
2023/12/18 01:33:30;;;;;;;21.23;15.73;;;;;;;0.29;81.78;100480.78;5028134;27;103248;-71
2023/12/18 01:35:58;;;;;;;16.88;13.43;;;;;;;0.29;81.85;100478.19;5023715;27;102776;-71
2023/12/18 01:38:26;;;;;;;17.25;14.73;;;;;;;0.27;81.76;100480.81;5019347;27;102611;-71
2023/12/18 01:40:56;;;;;;;16.92;11.48;;;;;;;0.32;82.00;100486.69;5021836;27;103926;-71
2023/12/18 01:43:27;;;;;;;14.45;10.93;;;;;;;0.39;81.70;100479.50;5025121;27;103854;-71
2023/12/18 01:45:58;;;;;;;20.15;15.13;;;;;;;0.34;81.48;100481.44;5028240;27;102731;-71
2023/12/18 01:48:27;;;;;;;17.83;12.88;;;;;;;0.33;81.51;100466.72;5003457;27;102771;-71
2023/12/18 01:50:57;;;;;;;16.27;12.50;;;;;;;0.32;81.71;100472.84;5038041;27;104592;-70
2023/12/18 01:53:30;;;;;;;16.02;13.07;;;;;;;0.34;81.42;100460.56;5000903;27;103952;-70
2023/12/18 01:55:58;;;;;;;22.70;12.80;;;;;;;0.12;81.69;100456.19;5003661;27;103185;-70
2023/12/18 01:58:29;;;;;;;19.58;14.70;;;;;;;0.30;81.82;100459.00;5023146;27;102932;-70
2023/12/18 02:00:58;;;;;;;16.52;13.20;;;;;;;0.34;81.76;100455.34;5025169;27;103437;-70
2023/12/18 02:03:28;;;;;;;19.77;15.02;;;;;;;0.35;82.03;100451.84;5024381;27;103195;-71
2023/12/18 02:05:57;;;;;;;19.10;13.82;;;;;;;0.34;81.68;100444.94;5001967;27;103029;-71
2023/12/18 02:08:25;;;;;;;21.90;15.10;;;;;;;0.38;81.81;100446.53;5026530;27;102895;-71
2023/12/18 02:10:54;;;;;;;16.48;12.68;;;;;;;0.45;81.92;100447.97;5024814;27;105024;-70
2023/12/18 02:13:22;;;;;;;16.85;13.60;;;;;;;0.47;81.31;100450.53;5019257;27;103363;-70
2023/12/18 02:15:51;;;;;;;18.42;12.82;;;;;;;0.53;81.68;100452.88;5025882;27;102619;-71
2023/12/18 02:18:19;;;;;;;18.27;12.63;;;;;;;0.56;81.10;100449.31;5010053;27;104028;-71
2023/12/18 02:20:47;;;;;;;20.40;15.27;;;;;;;0.57;81.15;100449.25;5002734;27;104534;-71
2023/12/18 02:23:17;;;;;;;19.20;14.00;;;;;;;0.59;81.15;100446.56;5025466;27;103063;-71
2023/12/18 02:25:45;;;;;;;19.17;14.05;;;;;;;0.56;81.44;100454.53;5021263;27;102707;-70
2023/12/18 02:28:13;;;;;;;17.20;13.18;;;;;;;0.60;81.12;100448.28;5024127;27;104058;-71
2023/12/18 02:30:41;;;;;;;14.15;11.90;;;;;;;0.59;80.76;100444.84;5030419;27;104491;-71
2023/12/18 02:33:09;;;;;;;15.35;12.43;;;;;;;0.61;80.73;100439.56;5005079;27;103283;-71
2023/12/18 02:35:37;;;;;;;16.33;12.32;;;;;;;0.55;80.62;100431.97;5022232;27;102610;-70
2023/12/18 02:38:05;;;;;;;18.25;13.18;;;;;;;0.59;80.88;100434.41;5028448;27;103915;-70
2023/12/18 02:40:35;;;;;;;19.73;14.38;;;;;;;0.61;80.94;100436.94;5001201;27;104436;-71
2023/12/18 02:43:04;;;;;;;17.73;13.20;;;;;;;0.56;81.22;100423.25;5027599;27;103223;-71
2023/12/18 02:45:32;;;;;;;19.08;14.05;;;;;;;0.60;80.82;100425.69;5020904;27;102602;-71
2023/12/18 02:48:00;;;;;;;16.70;11.68;;;;;;;0.56;81.16;100421.47;5008664;27;104478;-70
2023/12/18 02:50:28;;;;;;;17.92;14.38;;;;;;;0.61;81.06;100421.31;5020674;27;104352;-70
2023/12/18 02:52:56;;;;;;;18.17;13.00;;;;;;;0.63;81.00;100422.94;5029392;27;103202;-70
2023/12/18 02:55:24;;;;;;;16.13;12.65;;;;;;;0.59;80.95;100421.38;5026248;27;102898;-70
2023/12/18 02:57:53;;;;;;;15.50;11.68;;;;;;;0.60;81.14;100415.25;5021539;27;104397;-71
2023/12/18 03:00:21;;;;;;;15.25;11.45;;;;;;;0.63;80.71;100424.72;5010168;27;104486;-70
2023/12/18 03:02:49;;;;;;;17.50;13.57;;;;;;;0.61;80.85;100411.69;5002831;27;104250;-71
2023/12/18 03:05:17;;;;;;;14.60;10.90;;;;;;;0.62;80.64;100423.84;5026071;27;102731;-71
2023/12/18 03:07:45;;;;;;;15.77;12.48;;;;;;;0.53;80.55;100413.78;5024176;27;103223;-70
2023/12/18 03:10:13;;;;;;;17.08;11.98;;;;;;;0.56;81.08;100420.63;5036242;27;104189;-70
2023/12/18 03:12:40;;;;;;;13.60;9.98;;;;;;;0.55;80.90;100418.94;5024093;27;103279;-71
2023/12/18 03:15:10;;;;;;;11.95;9.50;;;;;;;0.58;81.02;100416.22;4988242;28;102968;-71
2023/12/18 03:17:38;;;;;;;14.07;10.80;;;;;;;0.58;80.54;100417.06;4997462;27;102755;-70
2023/12/18 03:20:09;;;;;;;15.38;12.18;;;;;;;0.60;80.57;100409.16;5009183;27;104371;-70
2023/12/18 03:22:39;;;;;;;21.70;14.60;;;;;;;0.58;80.50;100405.78;5028633;27;104465;-71
2023/12/18 03:25:08;;;;;;;15.93;11.07;;;;;;;0.59;80.74;100404.84;5008661;27;102821;-71
2023/12/18 03:27:36;;;;;;;14.20;10.65;;;;;;;0.64;80.59;100410.72;5030528;27;104108;-71
2023/12/18 03:30:05;;;;;;;14.35;10.63;;;;;;;0.65;80.63;100402.00;5024572;27;104238;-71
2023/12/18 03:32:35;;;;;;;13.55;11.05;;;;;;;0.64;80.05;100401.16;5043698;27;104439;-72
2023/12/18 03:35:03;;;;;;;13.68;10.98;;;;;;;0.64;80.08;100400.31;5022107;27;102868;-71
2023/12/18 03:37:31;;;;;;;14.25;10.43;;;;;;;0.64;80.23;100405.50;5027787;27;102870;-72
2023/12/18 03:39:59;;;;;;;15.18;11.68;;;;;;;0.66;80.28;100406.31;5028479;27;103904;-71
2023/12/18 03:42:27;;;;;;;13.65;10.10;;;;;;;0.68;80.34;100399.25;5037971;27;104341;-71
2023/12/18 03:44:55;;;;;;;14.98;10.82;;;;;;;0.66;79.90;100398.50;5028779;27;102641;-71
2023/12/18 03:47:23;;;;;;;16.65;13.10;;;;;;;0.61;79.21;100400.44;5039992;27;102702;-71
2023/12/18 03:49:52;;;;;;;13.70;10.02;;;;;;;0.58;79.94;100400.56;5027302;27;104186;-71
2023/12/18 03:52:20;;;;;;;17.52;12.90;;;;;;;0.51;79.90;100391.28;5026060;27;103184;-71
2023/12/18 03:54:48;;;;;;;17.08;13.27;;;;;;;0.36;80.17;100401.44;5030319;27;103140;-70
2023/12/18 03:57:16;;;;;;;18.00;12.98;;;;;;;0.40;80.41;100397.78;5003746;27;104567;-71
2023/12/18 03:59:44;;;;;;;13.73;9.88;;;;;;;0.37;80.23;100390.09;5005948;27;104371;-70
2023/12/18 04:02:12;;;;;;;15.68;12.25;;;;;;;0.40;80.06;100392.56;5026059;27;103293;-71
2023/12/18 04:04:39;;;;;;;16.08;12.52;;;;;;;0.29;80.36;100389.56;5026176;27;102614;-71
2023/12/18 04:07:09;;;;;;;14.35;10.48;;;;;;;0.27;80.50;100386.16;5010134;27;102849;-58
2023/12/18 04:09:38;;;;;;;16.30;12.75;;;;;;;0.28;80.35;100391.28;5018306;27;103742;-69
2023/12/18 04:12:07;;;;;;;13.63;10.13;;;;;;;0.35;80.72;100388.47;5011909;27;104080;-69
2023/12/18 04:14:35;;;;;;;10.93;8.68;;;;;;;0.34;80.20;100387.59;5023921;27;103138;-69
2023/12/18 04:17:03;;;;;;;14.15;11.27;;;;;;;0.35;80.42;100389.28;5023452;27;102826;-69
2023/12/18 04:19:30;;;;;;;11.90;9.10;;;;;;;0.36;80.49;100391.00;5025083;27;103120;-69
2023/12/18 04:21:59;;;;;;;14.93;11.27;;;;;;;0.38;79.81;100394.41;5022439;27;103422;-69
2023/12/18 04:24:28;;;;;;;14.30;10.13;;;;;;;0.24;80.29;100402.75;5016803;27;102695;-69
2023/12/18 04:26:57;;;;;;;14.40;11.02;;;;;;;0.28;80.20;100393.06;5021404;27;103929;-69
2023/12/18 04:29:25;;;;;;;11.73;9.02;;;;;;;0.30;80.37;100386.88;4999615;27;104168;-69
2023/12/18 04:31:53;;;;;;;11.80;8.98;;;;;;;0.29;80.03;100399.97;5021015;27;103386;-69
2023/12/18 04:34:21;;;;;;;11.73;9.07;;;;;;;0.31;80.26;100392.94;5019319;27;102673;-69
2023/12/18 04:36:49;;;;;;;12.20;8.90;;;;;;;0.33;80.00;100388.53;5009289;27;104111;-69
2023/12/18 04:39:18;;;;;;;11.70;8.57;;;;;;;0.29;80.19;100386.97;5022670;27;103266;-69
2023/12/18 04:41:50;;;;;;;11.50;8.43;;;;;;;0.34;80.04;100387.59;5021191;27;103160;-69
2023/12/18 04:44:18;;;;;;;11.52;8.05;;;;;;;0.36;79.90;100385.78;5019293;27;102816;-69
2023/12/18 04:46:46;;;;;;;12.27;8.95;;;;;;;0.35;79.55;100391.91;5005695;27;103016;-68
2023/12/18 04:49:15;;;;;;;13.77;8.70;;;;;;;0.36;79.49;100391.00;5021862;27;104177;-68
2023/12/18 04:51:43;;;;;;;11.20;8.45;;;;;;;0.32;79.21;100397.25;5008602;27;103918;-69
2023/12/18 04:54:11;;;;;;;11.63;8.90;;;;;;;0.30;79.52;100399.06;5007577;27;102929;-72
2023/12/18 04:56:39;;;;;;;12.45;8.73;;;;;;;0.32;79.25;100395.47;5024016;27;103072;-71
2023/12/18 04:59:10;;;;;;;10.93;8.18;;;;;;;0.35;79.31;100394.50;5008453;27;103768;-71
2023/12/18 05:01:38;;;;;;;10.65;8.50;;;;;;;0.35;79.57;100397.13;5007556;27;104245;-71
2023/12/18 05:04:09;;;;;;;9.55;7.60;;;;;;;0.33;79.19;100397.19;5022752;27;102789;-73
2023/12/18 05:06:39;;;;;;;10.57;8.02;;;;;;;0.30;78.77;100397.31;5025293;27;102731;-72
2023/12/18 05:09:07;;;;;;;11.55;7.97;;;;;;;0.28;78.66;100398.28;5009151;27;104307;-71
2023/12/18 05:11:35;;;;;;;11.98;8.35;;;;;;;0.26;78.86;100398.34;5022733;27;103213;-71
2023/12/18 05:14:03;;;;;;;9.88;7.47;;;;;;;0.23;78.55;100402.81;5024874;27;102928;-71
2023/12/18 05:16:33;;;;;;;9.73;7.28;;;;;;;0.22;78.61;100398.50;5008702;27;102738;-71
2023/12/18 05:19:01;;;;;;;9.90;7.45;;;;;;;0.24;78.84;100391.50;5022226;27;103346;-71
2023/12/18 05:21:29;;;;;;;12.20;7.35;;;;;;;0.19;78.48;100390.81;5023809;27;103261;-71
2023/12/18 05:23:59;;;;;;;10.60;8.00;;;;;;;0.19;78.74;100383.84;5023895;27;102664;-71
2023/12/18 05:26:29;;;;;;;15.73;11.57;;;;;;;0.20;78.45;100382.94;5026415;27;102750;-71
2023/12/18 05:28:58;;;;;;;12.80;8.90;;;;;;;0.15;78.43;100390.94;5029205;27;104115;-71
2023/12/18 05:31:27;;;;;;;11.48;8.80;;;;;;;0.12;78.45;100390.22;5011436;27;103597;-71
2023/12/18 05:33:57;;;;;;;13.40;9.98;;;;;;;0.11;78.34;100381.53;5029301;27;102663;-71
2023/12/18 05:36:25;;;;;;;14.27;11.07;;;;;;;0.08;78.57;100381.66;5029052;27;102683;-71
2023/12/18 05:38:54;;;;;;;16.83;12.38;;;;;;;-0.03;78.19;100389.03;5005852;27;104495;-71
2023/12/18 05:41:22;;;;;;;14.65;10.73;;;;;;;-0.02;79.06;100380.31;5023251;27;103809;-71
2023/12/18 05:43:49;;;;;;;14.95;11.18;;;;;;;-0.12;79.15;100374.59;5012796;27;102803;-71
2023/12/18 05:46:17;;;;;;;13.93;10.27;;;;;;;-0.17;79.33;100377.41;5024838;27;102766;-71
2023/12/18 05:48:45;;;;;;;15.10;11.48;;;;;;;-0.11;79.22;100380.69;5023398;27;104405;-72
2023/12/18 05:51:24;;;;;;;15.55;11.23;;;;;;;-0.17;79.03;100381.78;5044715;27;104472;-70
2023/12/18 05:53:56;;;;;;;14.38;10.80;;;;;;;-0.24;79.94;100388.94;5031665;27;102844;-71
2023/12/18 05:56:38;;;;;;;14.02;11.43;;;;;;;-0.24;80.20;100386.34;5032812;27;103811;-71
2023/12/18 05:59:16;;;;;;;14.85;11.68;;;;;;;-0.28;80.30;100391.72;5027738;27;103109;-71
2023/12/18 06:01:44;;;;;;;15.77;11.02;;;;;;;-0.41;80.56;100397.38;5006801;27;104112;-71
2023/12/18 06:04:16;;;;;;;14.80;11.32;;;;;;;-0.42;80.51;100394.84;5023236;27;102730;-71
2023/12/18 06:06:46;;;;;;;14.35;9.90;;;;;;;-0.33;81.00;100394.50;5026145;27;104013;-71
2023/12/18 06:09:15;;;;;;;13.43;8.90;;;;;;;-0.27;80.54;100391.66;5022971;27;104975;-71
2023/12/18 06:11:42;;;;;;;14.73;10.73;;;;;;;-0.20;80.24;100387.06;5018574;27;103254;-71
2023/12/18 06:14:10;;;;;;;13.98;10.40;;;;;;;-0.36;80.26;100392.84;5017054;27;102629;-71
2023/12/18 06:16:38;;;;;;;13.38;10.73;;;;;;;-0.48;80.56;100397.69;5021821;27;104050;-71
2023/12/18 06:19:06;;;;;;;13.43;10.57;;;;;;;-0.45;80.51;100402.78;5027071;27;104221;-70
2023/12/18 06:21:38;;;;;;;13.30;10.10;;;;;;;-0.49;80.56;100396.81;5026284;27;103220;-71
2023/12/18 06:24:08;;;;;;;16.20;11.02;;;;;;;-0.62;81.03;100396.41;5027113;27;102727;-71
2023/12/18 06:26:36;;;;;;;17.08;11.25;;;;;;;-0.67;81.19;100408.72;5021389;27;104261;-70
2023/12/18 06:29:04;;;;;;;12.23;8.70;;;;;;;-0.60;81.11;100399.81;5037822;27;103178;-71
2023/12/18 06:31:32;;;;;;;13.30;10.75;;;;;;;-0.51;80.88;100402.09;5010290;27;103241;-71
2023/12/18 06:34:00;;;;;;;15.52;11.00;;;;;;;-0.45;80.71;100402.78;5019101;27;102720;-70
2023/12/18 06:36:32;;;;;;;15.13;10.85;;;;;;;-0.56;80.27;100404.00;5030626;27;103820;-70
2023/12/18 06:39:00;;;;;;;15.75;11.80;;;;;;;-0.70;80.83;100409.69;5022776;27;104349;-70
2023/12/18 06:41:29;;;;;;;12.90;9.98;;;;;;;-0.60;81.28;100405.03;5005194;27;104370;-70
2023/12/18 06:43:58;;;;;;;19.20;12.40;;;;;;;-0.59;80.80;100411.06;5025817;27;102607;-70
2023/12/18 06:46:26;;;;;;;15.93;11.35;;;;;;;-0.59;80.86;100417.13;5019999;27;103949;-70
2023/12/18 06:48:56;;;;;;;12.73;10.05;;;;;;;-0.59;80.97;100421.47;5023962;27;104424;-71
2023/12/18 06:51:24;;;;;;;18.33;12.18;;;;;;;-0.59;81.05;100427.56;5026475;27;103223;-70
2023/12/18 06:53:52;;;;;;;18.65;13.15;;;;;;;-0.60;81.09;100428.44;5013727;27;102714;-70
2023/12/18 06:56:19;;;;;;;17.67;12.38;;;;;;;-0.60;80.83;100431.03;5023047;27;102618;-71
2023/12/18 06:58:49;;;;;;;20.30;12.55;;;;;;;-0.51;80.81;100422.91;5005279;27;103058;-70
2023/12/18 07:01:17;;;;;;;16.42;11.38;;;;;;;-0.57;80.78;100420.53;5010169;27;104161;-70
2023/12/18 07:03:45;;;;;;;17.15;12.73;;;;;;;-0.55;80.70;100423.06;5008624;27;102696;-70
2023/12/18 07:06:13;;;;;;;16.40;11.52;;;;;;;-0.51;80.42;100425.50;5022145;27;103198;-70
2023/12/18 07:08:41;;;;;;;12.18;9.52;;;;;;;-0.46;80.28;100411.47;5024477;27;103561;-70
2023/12/18 07:11:10;;;;;;;11.05;8.40;;;;;;;-0.40;80.39;100419.06;5026243;27;103306;-70
2023/12/18 07:13:38;;;;;;;16.98;12.80;;;;;;;-0.48;79.54;100423.72;4982013;27;102862;-69
2023/12/18 07:16:08;;;;;;;20.05;12.20;;;;;;;-0.49;80.05;100427.22;5018164;27;102768;-70
2023/12/18 07:18:36;;;;;;;14.50;10.82;;;;;;;-0.49;80.42;100422.00;5027248;27;103276;-70
2023/12/18 07:21:05;;;;;;;12.80;10.77;;;;;;;-0.46;80.09;100427.09;5008525;27;103233;-70
2023/12/18 07:23:33;;;;;;;19.70;12.18;;;;;;;-0.46;80.08;100425.34;5025398;27;102901;-70
2023/12/18 07:26:01;;;;;;;17.70;12.25;;;;;;;-0.48;80.17;100434.13;5025267;27;103790;-70
2023/12/18 07:28:29;;;;;;;19.77;14.30;;;;;;;-0.62;80.31;100440.66;5024377;27;103341;-70
2023/12/18 07:30:57;;;;;;;18.73;12.45;;;;;;;-0.65;80.73;100439.94;5009898;27;104134;-70
2023/12/18 07:33:26;;;;;;;18.95;13.30;;;;;;;-0.74;81.50;100446.28;5005068;27;102732;-70
2023/12/18 07:35:55;;;;;;;18.58;13.25;;;;;;;-0.65;81.12;100456.38;5020021;27;104087;-70
2023/12/18 07:38:23;;;;;;;18.33;13.10;;;;;;;-0.63;81.11;100458.94;5027531;27;104022;-69
2023/12/18 07:40:50;;;;;;;19.25;13.85;;;;;;;-0.70;81.18;100455.69;5022554;27;103259;-70
2023/12/18 07:43:19;;;;;;;18.13;13.23;;;;;;;-0.56;81.22;100450.84;5006276;27;102933;-70
2023/12/18 07:45:47;;;;;;;17.17;10.95;;;;;;;-0.41;80.76;100446.84;5011266;27;104167;-70
2023/12/18 07:48:15;;;;;;;15.15;11.05;;;;;;;-0.29;80.54;100448.16;5005561;27;104066;-70
2023/12/18 07:50:44;;;;;;;13.02;10.10;;;;;;;-0.14;80.35;100456.31;5005940;27;104255;-70
2023/12/18 07:53:12;;;;;;;13.57;8.80;;;;;;;0.04;80.38;100450.44;5001875;27;102706;-70
2023/12/18 07:55:40;;;;;;;10.63;8.68;;;;;;;0.23;80.29;100447.13;5025792;27;102659;-70
2023/12/18 07:58:08;;;;;;;17.05;12.63;;;;;;;0.30;78.33;100454.66;5026406;27;103378;-70
2023/12/18 08:00:38;;;;;;;12.95;10.07;;;;;;;0.26;78.95;100462.63;5024119;27;103233;-70
2023/12/18 08:03:06;;;;;;;10.90;8.20;;;;;;;0.43;79.31;100460.25;5006236;27;103907;-70
2023/12/18 08:05:35;;;;;;;10.43;8.35;;;;;;;0.70;79.25;100460.03;5035667;27;104322;-70
2023/12/18 08:08:05;;;;;;;10.20;7.93;;;;;;;0.93;78.70;100458.25;5025452;27;104426;-70
2023/12/18 08:10:33;;;;;;;15.68;11.25;;;;;;;0.99;77.47;100458.00;5003825;27;103231;-70
2023/12/18 08:13:01;;;;;;;15.55;11.05;;;;;;;1.10;76.88;100453.19;5008095;27;102753;-70
2023/12/18 08:15:31;;;;;;;19.15;13.45;;;;;;;1.04;75.14;100461.28;5019938;27;103877;-70
2023/12/18 08:17:59;;;;;;;18.80;13.85;;;;;;;0.79;77.06;100461.44;5030255;27;104226;-58
2023/12/18 08:20:27;;;;;;;14.60;10.82;;;;;;;1.20;78.04;100453.63;5023472;27;103307;-70
2023/12/18 08:22:55;;;;;;;13.65;10.68;;;;;;;1.45;77.51;100448.19;5040242;27;102639;-70
2023/12/18 08:25:25;;;;;;;15.38;10.55;;;;;;;1.70;76.93;100444.50;5032129;27;102695;-71
2023/12/18 08:27:53;;;;;;;13.55;10.45;;;;;;;1.40;76.61;100444.97;5006628;27;104299;-67
2023/12/18 08:30:24;;;;;;;16.25;10.05;;;;;;;1.69;76.15;100436.75;5023246;27;103204;-68
2023/12/18 08:32:54;;;;;;;12.10;8.15;;;;;;;1.95;76.27;100443.41;5027510;27;103063;-68
2023/12/18 08:35:22;;;;;;;18.23;11.48;;;;;;;2.11;75.64;100440.94;5024286;27;102762;-68
2023/12/18 08:37:50;;;;;;;21.27;10.90;;;;;;;2.17;75.04;100430.19;5023904;27;103257;-68
2023/12/18 08:40:18;;;;;;;15.88;12.70;;;;;;;2.35;74.60;100441.56;5030074;27;103287;-67
2023/12/18 08:42:47;;;;;;;12.40;9.75;;;;;;;2.34;74.54;100442.47;5030533;27;102689;-71
2023/12/18 08:45:15;;;;;;;13.57;10.40;;;;;;;2.55;74.12;100435.38;5013504;27;104286;-71
2023/12/18 08:47:43;;;;;;;15.05;10.90;;;;;;;2.59;74.39;100442.16;5005889;27;104242;-71
2023/12/18 08:50:11;;;;;;;15.57;11.43;;;;;;;2.68;74.10;100438.25;5011151;27;104123;-71
2023/12/18 08:52:39;;;;;;;12.50;9.68;;;;;;;2.88;73.89;100439.03;5008898;27;102795;-71
2023/12/18 08:55:08;;;;;;;12.60;9.68;;;;;;;2.87;73.54;100434.72;5030290;27;103986;-70
2023/12/18 08:57:35;;;;;;;15.70;10.65;;;;;;;2.89;73.98;100435.50;5022650;27;103386;-71
2023/12/18 09:00:06;;;;;;;14.88;10.32;;;;;;;3.05;73.29;100435.56;5028419;27;103183;-71
2023/12/18 09:02:34;;;;;;;20.20;11.73;;;;;;;3.17;72.22;100439.34;5029626;27;102668;-71
2023/12/18 09:05:02;;;;;;;12.95;10.38;;;;;;;3.09;72.95;100437.97;5023535;27;102996;-71
2023/12/18 09:07:30;;;;;;;17.08;12.00;;;;;;;3.01;72.71;100445.34;5012457;27;104389;-71
2023/12/18 09:09:58;;;;;;;13.05;9.95;;;;;;;3.11;73.43;100438.72;5031770;27;103269;-71
2023/12/18 09:12:26;;;;;;;14.13;9.73;;;;;;;3.35;72.36;100435.78;5030159;27;102944;-72
2023/12/18 09:14:54;;;;;;;12.70;9.65;;;;;;;3.45;71.86;100434.38;5030447;27;103189;-71
2023/12/18 09:17:23;;;;;;;12.02;9.10;;;;;;;3.63;71.29;100434.38;5030802;27;104182;-71
2023/12/18 09:19:51;;;;;;;14.02;8.93;;;;;;;3.41;71.93;100432.03;5034294;27;103101;-71
2023/12/18 09:22:19;;;;;;;16.60;10.30;;;;;;;3.56;71.92;100422.50;5027853;27;102907;-71
2023/12/18 09:24:47;;;;;;;14.63;10.45;;;;;;;3.41;70.19;100430.25;5031468;27;102727;-71
2023/12/18 09:27:15;;;;;;;13.50;10.25;;;;;;;3.36;72.12;100418.31;5030552;27;104187;-71
2023/12/18 09:29:45;;;;;;;15.02;10.63;;;;;;;3.62;71.32;100411.72;5002068;27;104202;-71
2023/12/18 09:32:13;;;;;;;16.38;10.85;;;;;;;3.75;70.55;100410.13;5022598;27;102618;-71
2023/12/18 09:34:43;;;;;;;14.00;9.85;;;;;;;3.85;71.50;100407.00;5028796;27;103992;-72
2023/12/18 09:37:11;;;;;;;11.90;9.43;;;;;;;3.78;71.21;100404.69;5004475;27;104374;-71
2023/12/18 09:39:41;;;;;;;14.73;10.30;;;;;;;4.02;69.89;100406.09;5004069;27;103203;-71
2023/12/18 09:42:10;;;;;;;13.45;9.73;;;;;;;4.07;69.96;100402.25;5032127;27;102707;-71
2023/12/18 09:44:41;;;;;;;12.93;8.77;;;;;;;4.13;70.02;100396.69;5022109;27;103884;-72
2023/12/18 09:47:10;;;;;;;13.95;9.30;;;;;;;4.18;69.22;100390.34;5006696;27;104745;-71
2023/12/18 09:49:38;;;;;;;11.98;8.13;;;;;;;4.20;69.15;100398.97;5025441;27;103270;-68
2023/12/18 09:52:09;;;;;;;12.23;7.65;;;;;;;4.28;69.30;100388.91;5033461;27;102726;-67
2023/12/18 09:54:40;;;;;;;13.98;8.52;;;;;;;4.35;68.46;100381.53;5028216;27;104137;-71
2023/12/18 09:57:10;;;;;;;9.98;7.15;;;;;;;4.47;68.29;100381.69;5007875;27;103514;-71
2023/12/18 09:59:38;;;;;;;11.70;8.27;;;;;;;4.29;68.01;100380.09;5026976;27;103206;-71
2023/12/18 10:02:09;;;;;;;10.13;7.28;;;;;;;4.24;69.01;100395.25;5023427;27;102691;-71
2023/12/18 10:04:37;;;;;;;11.52;8.20;;;;;;;4.51;68.00;100386.75;5028109;27;103810;-71
2023/12/18 10:07:05;;;;;;;11.50;8.10;;;;;;;4.51;67.66;100386.75;5022541;27;104137;-72
2023/12/18 10:09:36;;;;;;;10.60;8.43;;;;;;;4.41;67.48;100379.41;5031095;27;103328;-68
2023/12/18 10:12:05;;;;;;;13.80;8.05;;;;;;;4.45;66.92;100388.81;5018980;27;102742;-68
2023/12/18 10:14:34;;;;;;;12.68;8.30;;;;;;;4.70;66.80;100382.13;5027223;27;103974;-68
2023/12/18 10:17:06;;;;;;;13.05;8.40;;;;;;;4.87;66.10;100369.81;5023926;27;103282;-68
2023/12/18 10:19:34;;;;;;;10.10;7.82;;;;;;;4.99;67.44;100369.06;5030135;27;103238;-68
2023/12/18 10:22:05;;;;;;;10.30;7.75;;;;;;;5.09;66.95;100367.59;5041351;27;102929;-68
2023/12/18 10:24:33;;;;;;;10.60;7.15;;;;;;;5.08;64.67;100362.44;5027061;27;102800;-68
2023/12/18 10:27:03;;;;;;;12.25;7.20;;;;;;;5.19;65.08;100360.00;5025098;27;104414;-68
2023/12/18 10:29:31;;;;;;;11.18;7.70;;;;;;;5.23;66.00;100353.63;5027253;27;103229;-68
2023/12/18 10:32:02;;;;;;;12.88;7.47;;;;;;;5.09;64.92;100357.06;5024708;27;102666;-69
2023/12/18 10:34:36;;;;;;;10.43;7.75;;;;;;;5.39;65.77;100348.28;5007309;27;103900;-68
2023/12/18 10:37:04;;;;;;;10.18;7.07;;;;;;;5.77;65.16;100347.69;5032145;27;104249;-68
2023/12/18 10:39:37;;;;;;;10.57;8.38;;;;;;;5.74;64.94;100341.78;5020091;27;103216;-69
2023/12/18 10:42:14;;;;;;;13.13;8.33;;;;;;;5.82;63.09;100340.34;5041288;27;102753;-68
2023/12/18 10:44:44;;;;;;;11.82;8.32;;;;;;;6.11;64.13;100331.56;5004745;27;103110;-69
2023/12/18 10:47:16;;;;;;;10.45;7.38;;;;;;;6.10;64.39;100333.34;5007961;27;104251;-70
2023/12/18 10:49:45;;;;;;;12.65;7.78;;;;;;;6.18;63.14;100332.00;5008542;27;103230;-69
2023/12/18 10:52:15;;;;;;;10.30;7.68;;;;;;;6.37;62.53;100329.03;5027378;27;102647;-69
2023/12/18 10:54:45;;;;;;;11.70;8.18;;;;;;;6.27;61.92;100323.53;5026446;27;103264;-69
2023/12/18 10:57:17;;;;;;;11.98;7.78;;;;;;;5.76;63.86;100319.69;5004341;27;104202;-68
2023/12/18 10:59:49;;;;;;;11.80;8.15;;;;;;;6.30;63.19;100320.69;5025035;27;103221;-68
2023/12/18 11:02:21;;;;;;;9.48;7.10;;;;;;;6.19;63.43;100320.56;5020872;27;103316;-68
2023/12/18 11:04:50;;;;;;;11.60;8.45;;;;;;;5.82;63.36;100318.47;5022689;27;104202;-68
2023/12/18 11:07:20;;;;;;;10.10;7.32;;;;;;;6.49;63.10;100312.41;5007568;27;104210;-67
2023/12/18 11:09:50;;;;;;;8.77;7.45;;;;;;;6.87;62.24;100310.78;5023765;27;103339;-68
2023/12/18 11:12:21;;;;;;;10.38;7.78;;;;;;;6.82;61.13;100318.16;5001252;27;103013;-68
2023/12/18 11:14:58;;;;;;;;;;;;;;;6.82;60.44;100302.34;5006277;27;104235;-71
2023/12/18 11:17:37;;;;;;;9.63;7.00;;;;;;;7.18;60.70;100292.84;5002272;27;104301;-69